createdAt,value
2023-04-26T00:00:00.000Z,4.42
2023-04-26T00:15:00.000Z,3.21
2023-04-26T00:30:00.000Z,3.08
2023-04-26T00:45:00.000Z,2.99
2023-04-26T01:00:00.000Z,3.11
2023-04-26T01:15:00.000Z,2.85
2023-04-26T01:30:00.000Z,3.14
2023-04-26T01:45:00.000Z,3.24
2023-04-26T02:00:00.000Z,4.58
2023-04-26T02:15:00.000Z,4.55
2023-04-26T02:30:00.000Z,4.88
2023-04-26T02:45:00.000Z,5.46
2023-04-26T03:00:00.000Z,6.15
2023-04-26T03:15:00.000Z,7
2023-04-26T03:30:00.000Z,6.95
2023-04-26T03:45:00.000Z,6.59
2023-04-26T04:00:00.000Z,4.68
2023-04-26T04:15:00.000Z,4.68
2023-04-26T04:30:00.000Z,3.71
2023-04-26T04:45:00.000Z,5.38
2023-04-26T05:00:00.000Z,9.56
2023-04-26T05:15:00.000Z,13.82
2023-04-26T05:30:00.000Z,11.61
2023-04-26T05:45:00.000Z,10.87
2023-04-26T06:00:00.000Z,11.72
2023-04-26T06:15:00.000Z,9.78
2023-04-26T06:30:00.000Z,9.94
2023-04-26T06:45:00.000Z,10.78
2023-04-26T07:00:00.000Z,13.35
2023-04-26T07:15:00.000Z,14.66
2023-04-26T07:30:00.000Z,13.71
2023-04-26T07:45:00.000Z,11.2
2023-04-26T08:00:00.000Z,9.98
2023-04-26T08:15:00.000Z,9.85
2023-04-26T08:30:00.000Z,10.62
2023-04-26T08:45:00.000Z,11.51
2023-04-26T09:00:00.000Z,10.4
2023-04-26T09:15:00.000Z,15.02
2023-04-26T09:30:00.000Z,14.12
2023-04-26T09:45:00.000Z,10.04
2023-04-26T10:00:00.000Z,8.4
2023-04-26T10:15:00.000Z,6.33
2023-04-26T10:30:00.000Z,16.48
2023-04-26T10:45:00.000Z,12.74
2023-04-26T11:00:00.000Z,12.44
2023-04-26T11:15:00.000Z,5.32
2023-04-26T11:30:00.000Z,8.21
2023-04-26T11:45:00.000Z,6.12
2023-04-26T12:00:00.000Z,6.81
2023-04-26T12:15:00.000Z,8.78
2023-04-26T12:30:00.000Z,13.98
2023-04-26T12:45:00.000Z,10.81
2023-04-26T13:00:00.000Z,5.62
2023-04-26T13:15:00.000Z,5.71
2023-04-26T13:30:00.000Z,6.08
2023-04-26T13:45:00.000Z,5.91
2023-04-26T14:00:00.000Z,5.58
2023-04-26T14:15:00.000Z,5.22
2023-04-26T14:30:00.000Z,5.72
2023-04-26T14:45:00.000Z,5.36
2023-04-26T15:00:00.000Z,5.4
2023-04-26T15:15:00.000Z,6.06
2023-04-26T15:30:00.000Z,5.24
2023-04-26T15:45:00.000Z,5.54
2023-04-26T16:00:00.000Z,5.67
2023-04-26T16:15:00.000Z,6.61
2023-04-26T16:30:00.000Z,7.31
2023-04-26T16:45:00.000Z,7.01
2023-04-26T17:00:00.000Z,6.69
2023-04-26T17:15:00.000Z,7.27
2023-04-26T17:30:00.000Z,10.54
2023-04-26T17:45:00.000Z,10.24
2023-04-26T18:00:00.000Z,9.62
2023-04-26T18:15:00.000Z,9.26
2023-04-26T18:30:00.000Z,10.21
2023-04-26T18:45:00.000Z,10.45
2023-04-26T19:00:00.000Z,11.22
2023-04-26T19:15:00.000Z,11.2
2023-04-26T19:30:00.000Z,13.27
2023-04-26T19:45:00.000Z,14.05
2023-04-26T20:00:00.000Z,13.85
2023-04-26T20:15:00.000Z,11.68
2023-04-26T20:30:00.000Z,17.11
2023-04-26T20:45:00.000Z,15.61
2023-04-26T21:00:00.000Z,10.14
2023-04-26T21:15:00.000Z,9.85
2023-04-26T21:30:00.000Z,16.18
2023-04-26T21:45:00.000Z,19.65
2023-04-26T22:00:00.000Z,12.19
2023-04-26T22:15:00.000Z,14.21
2023-04-26T22:30:00.000Z,11
2023-04-26T22:45:00.000Z,10.51
2023-04-26T23:00:00.000Z,14.15
2023-04-26T23:15:00.000Z,10.88
2023-04-26T23:30:00.000Z,9.12
2023-04-26T23:45:00.000Z,9.38
